sensor_id;sensor_type;location;lat;lon;timestamp;P1;durP1;ratioP1;P2;durP2;ratioP2
20154;SDS011;10238;49.556;10.956;2024-03-23T00:53:58;12.88;;;7.57;;
20154;SDS011;10238;49.556;10.956;2024-03-23T00:56:44;10.43;;;6.50;;
20154;SDS011;10238;49.556;10.956;2024-03-23T00:59:30;9.27;;;7.78;;
20154;SDS011;10238;49.556;10.956;2024-03-23T01:02:17;11.50;;;7.38;;
20154;SDS011;10238;49.556;10.956;2024-03-23T01:05:03;10.73;;;7.53;;
20154;SDS011;10238;49.556;10.956;2024-03-23T01:07:50;13.48;;;7.45;;
20154;SDS011;10238;49.556;10.956;2024-03-23T01:10:37;8.45;;;6.68;;
20154;SDS011;10238;49.556;10.956;2024-03-23T01:13:24;11.05;;;7.32;;
20154;SDS011;10238;49.556;10.956;2024-03-23T01:16:11;11.35;;;8.05;;
20154;SDS011;10238;49.556;10.956;2024-03-23T01:18:57;10.25;;;6.45;;
20154;SDS011;10238;49.556;10.956;2024-03-23T01:21:43;12.25;;;8.27;;
20154;SDS011;10238;49.556;10.956;2024-03-23T01:24:30;12.07;;;7.88;;
20154;SDS011;10238;49.556;10.956;2024-03-23T01:27:18;9.55;;;7.88;;
20154;SDS011;10238;49.556;10.956;2024-03-23T01:30:05;10.35;;;8.15;;
20154;SDS011;10238;49.556;10.956;2024-03-23T01:32:52;12.85;;;8.77;;
20154;SDS011;10238;49.556;10.956;2024-03-23T01:35:39;12.35;;;9.18;;
20154;SDS011;10238;49.556;10.956;2024-03-23T01:38:25;15.15;;;10.15;;
20154;SDS011;10238;49.556;10.956;2024-03-23T01:41:12;13.35;;;9.98;;
20154;SDS011;10238;49.556;10.956;2024-03-23T01:43:59;13.82;;;10.43;;
20154;SDS011;10238;49.556;10.956;2024-03-23T01:46:51;14.73;;;10.68;;
20154;SDS011;10238;49.556;10.956;2024-03-23T01:49:37;15.80;;;9.65;;
20154;SDS011;10238;49.556;10.956;2024-03-23T01:52:24;12.60;;;9.90;;
20154;SDS011;10238;49.556;10.956;2024-03-23T01:55:11;14.55;;;10.40;;
20154;SDS011;10238;49.556;10.956;2024-03-23T01:57:58;13.77;;;10.27;;
20154;SDS011;10238;49.556;10.956;2024-03-23T02:00:45;17.27;;;10.85;;
20154;SDS011;10238;49.556;10.956;2024-03-23T02:03:32;13.07;;;8.98;;
20154;SDS011;10238;49.556;10.956;2024-03-23T02:06:18;13.85;;;9.82;;
20154;SDS011;10238;49.556;10.956;2024-03-23T02:09:04;12.98;;;9.80;;
20154;SDS011;10238;49.556;10.956;2024-03-23T02:11:51;13.93;;;9.30;;
20154;SDS011;10238;49.556;10.956;2024-03-23T02:14:37;11.65;;;7.65;;
20154;SDS011;10238;49.556;10.956;2024-03-23T02:17:24;11.68;;;8.57;;
20154;SDS011;10238;49.556;10.956;2024-03-23T02:20:11;11.75;;;8.27;;
20154;SDS011;10238;49.556;10.956;2024-03-23T02:22:58;11.18;;;8.10;;
20154;SDS011;10238;49.556;10.956;2024-03-23T02:25:45;14.63;;;9.82;;
20154;SDS011;10238;49.556;10.956;2024-03-23T02:28:31;12.35;;;7.93;;
20154;SDS011;10238;49.556;10.956;2024-03-23T02:31:18;11.73;;;8.57;;
20154;SDS011;10238;49.556;10.956;2024-03-23T02:34:04;12.77;;;9.23;;
20154;SDS011;10238;49.556;10.956;2024-03-23T02:36:51;13.05;;;8.32;;
20154;SDS011;10238;49.556;10.956;2024-03-23T02:39:38;12.23;;;7.25;;
20154;SDS011;10238;49.556;10.956;2024-03-23T02:42:24;13.32;;;8.90;;
20154;SDS011;10238;49.556;10.956;2024-03-23T02:45:09;12.15;;;9.07;;
20154;SDS011;10238;49.556;10.956;2024-03-23T02:47:57;10.88;;;8.40;;
20154;SDS011;10238;49.556;10.956;2024-03-23T02:50:42;11.60;;;8.38;;
20154;SDS011;10238;49.556;10.956;2024-03-23T02:53:29;10.45;;;7.45;;
20154;SDS011;10238;49.556;10.956;2024-03-23T02:56:16;9.52;;;7.28;;
20154;SDS011;10238;49.556;10.956;2024-03-23T02:59:02;11.80;;;7.82;;
20154;SDS011;10238;49.556;10.956;2024-03-23T03:01:48;11.73;;;8.05;;
20154;SDS011;10238;49.556;10.956;2024-03-23T03:04:34;9.05;;;5.72;;
20154;SDS011;10238;49.556;10.956;2024-03-23T03:07:20;12.50;;;8.63;;
20154;SDS011;10238;49.556;10.956;2024-03-23T03:10:07;12.32;;;7.95;;
20154;SDS011;10238;49.556;10.956;2024-03-23T03:12:57;9.20;;;7.00;;
20154;SDS011;10238;49.556;10.956;2024-03-23T03:15:44;9.75;;;6.82;;
20154;SDS011;10238;49.556;10.956;2024-03-23T03:18:30;12.40;;;8.20;;
20154;SDS011;10238;49.556;10.956;2024-03-23T03:21:17;11.02;;;7.20;;
20154;SDS011;10238;49.556;10.956;2024-03-23T03:24:05;10.20;;;7.15;;
20154;SDS011;10238;49.556;10.956;2024-03-23T03:26:52;13.40;;;8.65;;
20154;SDS011;10238;49.556;10.956;2024-03-23T03:29:40;13.93;;;9.85;;
20154;SDS011;10238;49.556;10.956;2024-03-23T03:32:27;12.10;;;7.97;;
20154;SDS011;10238;49.556;10.956;2024-03-23T03:35:14;9.18;;;6.97;;
20154;SDS011;10238;49.556;10.956;2024-03-23T03:38:00;12.77;;;8.90;;
20154;SDS011;10238;49.556;10.956;2024-03-23T03:40:46;14.27;;;9.93;;
20154;SDS011;10238;49.556;10.956;2024-03-23T03:43:33;13.68;;;9.57;;
20154;SDS011;10238;49.556;10.956;2024-03-23T03:46:20;14.07;;;9.85;;
20154;SDS011;10238;49.556;10.956;2024-03-23T03:49:07;13.90;;;9.73;;
20154;SDS011;10238;49.556;10.956;2024-03-23T03:51:53;13.65;;;9.90;;
20154;SDS011;10238;49.556;10.956;2024-03-23T03:54:40;12.70;;;8.93;;
20154;SDS011;10238;49.556;10.956;2024-03-23T03:57:26;10.98;;;8.30;;
20154;SDS011;10238;49.556;10.956;2024-03-23T04:00:13;13.15;;;8.65;;
20154;SDS011;10238;49.556;10.956;2024-03-23T04:03:00;12.15;;;8.52;;
20154;SDS011;10238;49.556;10.956;2024-03-23T04:05:50;9.73;;;7.55;;
20154;SDS011;10238;49.556;10.956;2024-03-23T04:08:37;10.75;;;7.85;;
20154;SDS011;10238;49.556;10.956;2024-03-23T04:11:23;11.95;;;7.78;;
20154;SDS011;10238;49.556;10.956;2024-03-23T04:14:10;9.70;;;7.25;;
20154;SDS011;10238;49.556;10.956;2024-03-23T04:16:56;12.85;;;7.22;;
20154;SDS011;10238;49.556;10.956;2024-03-23T04:19:43;8.57;;;6.38;;
20154;SDS011;10238;49.556;10.956;2024-03-23T04:22:31;9.20;;;6.65;;
20154;SDS011;10238;49.556;10.956;2024-03-23T04:25:16;11.07;;;7.85;;
20154;SDS011;10238;49.556;10.956;2024-03-23T04:28:04;8.52;;;6.63;;
20154;SDS011;10238;49.556;10.956;2024-03-23T04:30:50;10.60;;;7.20;;
20154;SDS011;10238;49.556;10.956;2024-03-23T04:33:37;12.55;;;8.15;;
20154;SDS011;10238;49.556;10.956;2024-03-23T04:36:24;9.38;;;7.05;;
20154;SDS011;10238;49.556;10.956;2024-03-23T04:39:10;9.98;;;8.02;;
20154;SDS011;10238;49.556;10.956;2024-03-23T04:41:57;9.48;;;6.82;;
20154;SDS011;10238;49.556;10.956;2024-03-23T04:44:44;11.07;;;8.43;;
20154;SDS011;10238;49.556;10.956;2024-03-23T04:47:30;11.20;;;8.50;;
20154;SDS011;10238;49.556;10.956;2024-03-23T04:50:17;14.45;;;8.85;;
20154;SDS011;10238;49.556;10.956;2024-03-23T04:53:05;10.70;;;7.95;;
20154;SDS011;10238;49.556;10.956;2024-03-23T04:55:52;13.65;;;8.13;;
20154;SDS011;10238;49.556;10.956;2024-03-23T04:58:41;8.13;;;6.97;;
20154;SDS011;10238;49.556;10.956;2024-03-23T05:01:27;12.35;;;7.80;;
20154;SDS011;10238;49.556;10.956;2024-03-23T05:04:14;10.38;;;7.80;;
20154;SDS011;10238;49.556;10.956;2024-03-23T05:06:59;9.45;;;7.10;;
20154;SDS011;10238;49.556;10.956;2024-03-23T05:09:47;13.15;;;8.15;;
20154;SDS011;10238;49.556;10.956;2024-03-23T05:12:33;12.60;;;8.40;;
20154;SDS011;10238;49.556;10.956;2024-03-23T05:15:20;12.52;;;7.82;;
20154;SDS011;10238;49.556;10.956;2024-03-23T05:18:05;11.55;;;7.95;;
20154;SDS011;10238;49.556;10.956;2024-03-23T05:20:55;10.32;;;8.20;;
20154;SDS011;10238;49.556;10.956;2024-03-23T05:23:42;10.32;;;7.53;;
20154;SDS011;10238;49.556;10.956;2024-03-23T05:26:30;11.85;;;7.60;;
20154;SDS011;10238;49.556;10.956;2024-03-23T05:29:18;11.50;;;7.07;;
20154;SDS011;10238;49.556;10.956;2024-03-23T05:32:06;10.02;;;6.97;;
20154;SDS011;10238;49.556;10.956;2024-03-23T05:34:55;8.73;;;6.60;;
20154;SDS011;10238;49.556;10.956;2024-03-23T05:37:41;10.70;;;7.50;;
20154;SDS011;10238;49.556;10.956;2024-03-23T05:40:29;7.97;;;6.38;;
20154;SDS011;10238;49.556;10.956;2024-03-23T05:43:16;9.90;;;6.80;;
20154;SDS011;10238;49.556;10.956;2024-03-23T05:46:03;9.13;;;6.75;;
20154;SDS011;10238;49.556;10.956;2024-03-23T05:48:50;8.13;;;6.88;;
20154;SDS011;10238;49.556;10.956;2024-03-23T05:51:37;9.30;;;6.68;;
20154;SDS011;10238;49.556;10.956;2024-03-23T05:54:23;11.77;;;7.30;;
20154;SDS011;10238;49.556;10.956;2024-03-23T05:57:10;14.70;;;7.30;;
20154;SDS011;10238;49.556;10.956;2024-03-23T05:59:58;9.20;;;6.47;;
20154;SDS011;10238;49.556;10.956;2024-03-23T06:02:45;16.23;;;8.10;;
20154;SDS011;10238;49.556;10.956;2024-03-23T06:05:30;9.15;;;6.80;;
20154;SDS011;10238;49.556;10.956;2024-03-23T06:08:17;9.55;;;6.53;;
20154;SDS011;10238;49.556;10.956;2024-03-23T06:11:03;11.25;;;6.75;;
20154;SDS011;10238;49.556;10.956;2024-03-23T06:13:50;9.73;;;6.53;;
20154;SDS011;10238;49.556;10.956;2024-03-23T06:16:38;7.68;;;6.13;;
20154;SDS011;10238;49.556;10.956;2024-03-23T06:19:24;8.23;;;6.05;;
20154;SDS011;10238;49.556;10.956;2024-03-23T06:22:12;12.52;;;6.72;;
20154;SDS011;10238;49.556;10.956;2024-03-23T06:24:58;8.57;;;6.10;;
20154;SDS011;10238;49.556;10.956;2024-03-23T06:27:44;9.20;;;6.68;;
20154;SDS011;10238;49.556;10.956;2024-03-23T06:30:31;9.98;;;7.07;;
20154;SDS011;10238;49.556;10.956;2024-03-23T06:33:18;9.00;;;5.90;;
20154;SDS011;10238;49.556;10.956;2024-03-23T06:36:05;9.05;;;6.45;;
20154;SDS011;10238;49.556;10.956;2024-03-23T06:38:53;9.32;;;6.40;;
20154;SDS011;10238;49.556;10.956;2024-03-23T06:41:40;11.77;;;7.13;;
20154;SDS011;10238;49.556;10.956;2024-03-23T06:44:25;9.50;;;6.25;;
20154;SDS011;10238;49.556;10.956;2024-03-23T06:47:11;9.05;;;6.38;;
20154;SDS011;10238;49.556;10.956;2024-03-23T06:49:59;10.18;;;6.80;;
20154;SDS011;10238;49.556;10.956;2024-03-23T06:52:46;12.38;;;6.70;;
20154;SDS011;10238;49.556;10.956;2024-03-23T06:55:33;8.85;;;6.25;;
20154;SDS011;10238;49.556;10.956;2024-03-23T06:58:19;10.30;;;6.22;;
20154;SDS011;10238;49.556;10.956;2024-03-23T07:01:07;10.30;;;6.20;;
20154;SDS011;10238;49.556;10.956;2024-03-23T07:03:52;7.85;;;5.97;;
20154;SDS011;10238;49.556;10.956;2024-03-23T07:06:43;9.43;;;5.53;;
20154;SDS011;10238;49.556;10.956;2024-03-23T07:09:29;7.72;;;4.82;;
20154;SDS011;10238;49.556;10.956;2024-03-23T07:12:16;8.98;;;5.50;;
20154;SDS011;10238;49.556;10.956;2024-03-23T07:15:01;6.78;;;4.47;;
20154;SDS011;10238;49.556;10.956;2024-03-23T07:17:49;7.72;;;5.68;;
20154;SDS011;10238;49.556;10.956;2024-03-23T07:20:35;8.68;;;6.20;;
20154;SDS011;10238;49.556;10.956;2024-03-23T07:23:23;8.90;;;5.85;;
20154;SDS011;10238;49.556;10.956;2024-03-23T07:26:09;9.50;;;5.93;;
20154;SDS011;10238;49.556;10.956;2024-03-23T07:28:56;8.43;;;5.03;;
20154;SDS011;10238;49.556;10.956;2024-03-23T07:31:42;7.40;;;4.95;;
20154;SDS011;10238;49.556;10.956;2024-03-23T07:34:28;9.23;;;5.75;;
20154;SDS011;10238;49.556;10.956;2024-03-23T07:37:14;7.97;;;4.82;;
20154;SDS011;10238;49.556;10.956;2024-03-23T07:40:02;8.52;;;5.25;;
20154;SDS011;10238;49.556;10.956;2024-03-23T07:42:48;10.48;;;5.57;;
20154;SDS011;10238;49.556;10.956;2024-03-23T07:45:36;9.73;;;5.10;;
20154;SDS011;10238;49.556;10.956;2024-03-23T07:48:22;9.23;;;6.05;;
20154;SDS011;10238;49.556;10.956;2024-03-23T07:51:11;9.02;;;5.70;;
20154;SDS011;10238;49.556;10.956;2024-03-23T07:54:02;10.10;;;6.25;;
20154;SDS011;10238;49.556;10.956;2024-03-23T07:56:50;6.63;;;4.85;;
20154;SDS011;10238;49.556;10.956;2024-03-23T07:59:36;7.35;;;4.88;;
20154;SDS011;10238;49.556;10.956;2024-03-23T08:02:23;10.10;;;6.28;;
20154;SDS011;10238;49.556;10.956;2024-03-23T08:05:08;7.32;;;4.65;;
20154;SDS011;10238;49.556;10.956;2024-03-23T08:07:56;8.10;;;5.10;;
20154;SDS011;10238;49.556;10.956;2024-03-23T08:10:48;8.55;;;4.65;;
20154;SDS011;10238;49.556;10.956;2024-03-23T08:13:37;6.93;;;4.20;;
20154;SDS011;10238;49.556;10.956;2024-03-23T08:16:24;6.55;;;4.32;;
20154;SDS011;10238;49.556;10.956;2024-03-23T08:19:11;7.53;;;3.88;;
20154;SDS011;10238;49.556;10.956;2024-03-23T08:21:56;4.50;;;3.30;;
20154;SDS011;10238;49.556;10.956;2024-03-23T08:24:43;5.75;;;2.88;;
20154;SDS011;10238;49.556;10.956;2024-03-23T08:27:29;4.50;;;3.50;;
20154;SDS011;10238;49.556;10.956;2024-03-23T08:30:17;2.03;;;1.92;;
20154;SDS011;10238;49.556;10.956;2024-03-23T08:33:03;2.47;;;2.05;;
20154;SDS011;10238;49.556;10.956;2024-03-23T08:35:53;2.08;;;1.88;;
20154;SDS011;10238;49.556;10.956;2024-03-23T08:38:40;2.10;;;1.90;;
20154;SDS011;10238;49.556;10.956;2024-03-23T08:41:27;1.88;;;1.67;;
20154;SDS011;10238;49.556;10.956;2024-03-23T08:44:13;2.50;;;2.05;;
20154;SDS011;10238;49.556;10.956;2024-03-23T08:47:01;2.40;;;2.15;;
20154;SDS011;10238;49.556;10.956;2024-03-23T08:49:46;2.03;;;1.90;;
20154;SDS011;10238;49.556;10.956;2024-03-23T08:52:33;1.45;;;1.30;;
20154;SDS011;10238;49.556;10.956;2024-03-23T08:55:18;1.52;;;1.40;;
20154;SDS011;10238;49.556;10.956;2024-03-23T08:58:05;1.50;;;1.40;;
20154;SDS011;10238;49.556;10.956;2024-03-23T09:00:53;1.67;;;1.60;;
20154;SDS011;10238;49.556;10.956;2024-03-23T09:03:43;1.20;;;1.10;;
20154;SDS011;10238;49.556;10.956;2024-03-23T09:06:29;1.60;;;1.50;;
20154;SDS011;10238;49.556;10.956;2024-03-23T09:09:16;1.40;;;1.30;;
20154;SDS011;10238;49.556;10.956;2024-03-23T09:12:01;0.93;;;0.93;;
20154;SDS011;10238;49.556;10.956;2024-03-23T09:14:49;1.20;;;1.10;;
20154;SDS011;10238;49.556;10.956;2024-03-23T09:17:35;1.25;;;1.15;;
20154;SDS011;10238;49.556;10.956;2024-03-23T09:20:23;0.80;;;0.80;;
20154;SDS011;10238;49.556;10.956;2024-03-23T09:23:09;1.13;;;1.02;;
20154;SDS011;10238;49.556;10.956;2024-03-23T09:25:55;0.70;;;0.70;;
20154;SDS011;10238;49.556;10.956;2024-03-23T09:28:42;0.80;;;0.80;;
20154;SDS011;10238;49.556;10.956;2024-03-23T09:31:27;0.70;;;0.70;;
20154;SDS011;10238;49.556;10.956;2024-03-23T09:34:15;0.60;;;0.60;;
20154;SDS011;10238;49.556;10.956;2024-03-23T09:37:02;0.82;;;0.82;;
20154;SDS011;10238;49.556;10.956;2024-03-23T09:39:50;0.70;;;0.70;;
20154;SDS011;10238;49.556;10.956;2024-03-23T09:42:35;0.52;;;0.52;;
20154;SDS011;10238;49.556;10.956;2024-03-23T09:45:25;0.80;;;0.70;;
20154;SDS011;10238;49.556;10.956;2024-03-23T09:48:13;0.80;;;0.80;;
20154;SDS011;10238;49.556;10.956;2024-03-23T09:50:59;1.55;;;0.80;;
20154;SDS011;10238;49.556;10.956;2024-03-23T09:53:49;1.55;;;0.70;;
20154;SDS011;10238;49.556;10.956;2024-03-23T09:56:37;0.70;;;0.70;;
20154;SDS011;10238;49.556;10.956;2024-03-23T09:59:22;0.80;;;0.80;;
20154;SDS011;10238;49.556;10.956;2024-03-23T10:02:11;0.55;;;0.55;;
20154;SDS011;10238;49.556;10.956;2024-03-23T10:05:01;0.60;;;0.60;;
20154;SDS011;10238;49.556;10.956;2024-03-23T10:07:48;0.90;;;0.90;;
20154;SDS011;10238;49.556;10.956;2024-03-23T10:10:35;0.63;;;0.63;;
20154;SDS011;10238;49.556;10.956;2024-03-23T10:13:26;0.82;;;0.82;;
20154;SDS011;10238;49.556;10.956;2024-03-23T10:16:20;0.70;;;0.70;;
20154;SDS011;10238;49.556;10.956;2024-03-23T10:19:08;0.60;;;0.60;;
20154;SDS011;10238;49.556;10.956;2024-03-23T10:21:55;1.42;;;0.82;;
20154;SDS011;10238;49.556;10.956;2024-03-23T10:24:42;0.90;;;0.90;;
20154;SDS011;10238;49.556;10.956;2024-03-23T10:27:29;1.00;;;0.93;;
20154;SDS011;10238;49.556;10.956;2024-03-23T10:30:16;1.08;;;1.00;;
20154;SDS011;10238;49.556;10.956;2024-03-23T10:33:09;1.02;;;1.00;;
20154;SDS011;10238;49.556;10.956;2024-03-23T10:35:56;1.40;;;1.30;;
20154;SDS011;10238;49.556;10.956;2024-03-23T10:38:42;3.10;;;1.10;;
20154;SDS011;10238;49.556;10.956;2024-03-23T10:41:31;1.33;;;1.23;;
20154;SDS011;10238;49.556;10.956;2024-03-23T10:44:19;2.50;;;1.27;;
20154;SDS011;10238;49.556;10.956;2024-03-23T10:47:08;2.05;;;1.40;;
20154;SDS011;10238;49.556;10.956;2024-03-23T10:49:54;2.80;;;1.40;;
20154;SDS011;10238;49.556;10.956;2024-03-23T10:52:42;1.58;;;1.13;;
20154;SDS011;10238;49.556;10.956;2024-03-23T10:55:32;1.02;;;1.02;;
20154;SDS011;10238;49.556;10.956;2024-03-23T10:58:20;1.98;;;1.50;;
20154;SDS011;10238;49.556;10.956;2024-03-23T11:01:13;1.67;;;1.20;;
20154;SDS011;10238;49.556;10.956;2024-03-23T11:04:01;1.27;;;1.17;;
20154;SDS011;10238;49.556;10.956;2024-03-23T11:06:46;1.50;;;1.40;;
20154;SDS011;10238;49.556;10.956;2024-03-23T11:09:40;1.38;;;1.27;;
20154;SDS011;10238;49.556;10.956;2024-03-23T11:12:29;1.83;;;1.45;;
20154;SDS011;10238;49.556;10.956;2024-03-23T11:15:19;1.88;;;1.40;;
20154;SDS011;10238;49.556;10.956;2024-03-23T11:18:08;3.78;;;1.70;;
20154;SDS011;10238;49.556;10.956;2024-03-23T11:20:56;2.97;;;1.70;;
20154;SDS011;10238;49.556;10.956;2024-03-23T11:23:42;3.75;;;1.40;;
20154;SDS011;10238;49.556;10.956;2024-03-23T11:26:28;1.63;;;1.48;;
20154;SDS011;10238;49.556;10.956;2024-03-23T11:29:15;2.55;;;1.50;;
20154;SDS011;10238;49.556;10.956;2024-03-23T11:32:03;4.10;;;1.90;;
20154;SDS011;10238;49.556;10.956;2024-03-23T11:34:56;1.42;;;1.30;;
20154;SDS011;10238;49.556;10.956;2024-03-23T11:37:42;5.57;;;2.20;;
20154;SDS011;10238;49.556;10.956;2024-03-23T11:40:28;3.38;;;2.10;;
20154;SDS011;10238;49.556;10.956;2024-03-23T11:43:16;2.60;;;1.63;;
20154;SDS011;10238;49.556;10.956;2024-03-23T11:46:04;6.38;;;2.10;;
20154;SDS011;10238;49.556;10.956;2024-03-23T11:48:53;3.85;;;1.80;;
20154;SDS011;10238;49.556;10.956;2024-03-23T11:51:41;3.40;;;1.58;;
20154;SDS011;10238;49.556;10.956;2024-03-23T11:54:27;1.92;;;1.55;;
20154;SDS011;10238;49.556;10.956;2024-03-23T11:57:13;3.72;;;2.00;;
20154;SDS011;10238;49.556;10.956;2024-03-23T12:00:01;3.33;;;1.88;;
20154;SDS011;10238;49.556;10.956;2024-03-23T12:03:05;3.40;;;1.70;;
20154;SDS011;10238;49.556;10.956;2024-03-23T12:05:52;3.00;;;1.38;;
20154;SDS011;10238;49.556;10.956;2024-03-23T12:08:41;4.00;;;2.00;;
20154;SDS011;10238;49.556;10.956;2024-03-23T12:11:27;2.42;;;1.52;;
20154;SDS011;10238;49.556;10.956;2024-03-23T12:14:14;2.05;;;1.15;;
20154;SDS011;10238;49.556;10.956;2024-03-23T12:17:07;5.43;;;1.63;;
20154;SDS011;10238;49.556;10.956;2024-03-23T12:19:58;6.00;;;1.70;;
20154;SDS011;10238;49.556;10.956;2024-03-23T12:22:43;3.90;;;1.73;;
20154;SDS011;10238;49.556;10.956;2024-03-23T12:25:32;3.63;;;1.77;;
20154;SDS011;10238;49.556;10.956;2024-03-23T12:28:19;2.58;;;1.50;;
20154;SDS011;10238;49.556;10.956;2024-03-23T12:31:05;3.28;;;1.80;;
20154;SDS011;10238;49.556;10.956;2024-03-23T12:33:52;4.00;;;2.08;;
20154;SDS011;10238;49.556;10.956;2024-03-23T12:36:39;4.15;;;1.50;;
20154;SDS011;10238;49.556;10.956;2024-03-23T12:39:24;3.97;;;2.03;;
20154;SDS011;10238;49.556;10.956;2024-03-23T12:42:12;5.47;;;2.10;;
20154;SDS011;10238;49.556;10.956;2024-03-23T12:44:58;4.32;;;1.60;;
20154;SDS011;10238;49.556;10.956;2024-03-23T12:47:44;2.97;;;1.65;;
20154;SDS011;10238;49.556;10.956;2024-03-23T12:50:31;3.55;;;2.10;;
20154;SDS011;10238;49.556;10.956;2024-03-23T12:53:16;4.28;;;2.20;;
20154;SDS011;10238;49.556;10.956;2024-03-23T12:56:03;4.80;;;1.70;;
20154;SDS011;10238;49.556;10.956;2024-03-23T12:58:51;5.15;;;2.47;;
20154;SDS011;10238;49.556;10.956;2024-03-23T13:01:39;5.43;;;3.03;;
20154;SDS011;10238;49.556;10.956;2024-03-23T13:04:24;3.60;;;3.17;;
20154;SDS011;10238;49.556;10.956;2024-03-23T13:07:11;2.92;;;2.65;;
20154;SDS011;10238;49.556;10.956;2024-03-23T13:09:57;4.65;;;2.65;;
20154;SDS011;10238;49.556;10.956;2024-03-23T13:12:44;4.68;;;2.78;;
20154;SDS011;10238;49.556;10.956;2024-03-23T13:15:31;3.30;;;2.38;;
20154;SDS011;10238;49.556;10.956;2024-03-23T13:18:18;3.50;;;2.33;;
20154;SDS011;10238;49.556;10.956;2024-03-23T13:21:04;4.47;;;2.10;;
20154;SDS011;10238;49.556;10.956;2024-03-23T13:23:50;3.83;;;1.92;;
20154;SDS011;10238;49.556;10.956;2024-03-23T13:26:36;5.63;;;2.42;;
20154;SDS011;10238;49.556;10.956;2024-03-23T13:29:23;4.82;;;2.42;;
20154;SDS011;10238;49.556;10.956;2024-03-23T13:32:10;3.67;;;2.20;;
20154;SDS011;10238;49.556;10.956;2024-03-23T13:34:57;4.00;;;2.45;;
20154;SDS011;10238;49.556;10.956;2024-03-23T13:37:43;3.40;;;2.40;;
20154;SDS011;10238;49.556;10.956;2024-03-23T13:40:29;5.78;;;2.80;;
20154;SDS011;10238;49.556;10.956;2024-03-23T13:43:16;3.65;;;2.30;;
20154;SDS011;10238;49.556;10.956;2024-03-23T13:46:01;4.03;;;2.97;;
20154;SDS011;10238;49.556;10.956;2024-03-23T13:48:50;5.72;;;2.30;;
20154;SDS011;10238;49.556;10.956;2024-03-23T13:51:35;4.45;;;2.55;;
20154;SDS011;10238;49.556;10.956;2024-03-23T13:54:22;4.65;;;2.38;;
20154;SDS011;10238;49.556;10.956;2024-03-23T13:57:09;4.55;;;2.35;;
20154;SDS011;10238;49.556;10.956;2024-03-23T13:59:55;5.57;;;2.70;;
20154;SDS011;10238;49.556;10.956;2024-03-23T14:02:41;3.65;;;2.45;;
20154;SDS011;10238;49.556;10.956;2024-03-23T14:05:29;5.78;;;2.90;;
20154;SDS011;10238;49.556;10.956;2024-03-23T14:08:15;7.97;;;2.63;;
20154;SDS011;10238;49.556;10.956;2024-03-23T14:11:02;6.38;;;2.63;;
20154;SDS011;10238;49.556;10.956;2024-03-23T14:13:48;5.30;;;2.03;;
20154;SDS011;10238;49.556;10.956;2024-03-23T14:16:35;4.65;;;2.00;;
20154;SDS011;10238;49.556;10.956;2024-03-23T14:19:22;6.10;;;2.10;;
20154;SDS011;10238;49.556;10.956;2024-03-23T14:22:08;7.38;;;2.28;;
20154;SDS011;10238;49.556;10.956;2024-03-23T14:24:55;5.60;;;2.35;;
20154;SDS011;10238;49.556;10.956;2024-03-23T14:27:41;4.13;;;2.38;;
20154;SDS011;10238;49.556;10.956;2024-03-23T14:30:30;3.53;;;2.80;;
20154;SDS011;10238;49.556;10.956;2024-03-23T14:33:16;5.28;;;1.98;;
20154;SDS011;10238;49.556;10.956;2024-03-23T14:36:04;4.88;;;2.55;;
20154;SDS011;10238;49.556;10.956;2024-03-23T14:38:52;5.45;;;2.45;;
20154;SDS011;10238;49.556;10.956;2024-03-23T14:41:39;5.40;;;2.60;;
20154;SDS011;10238;49.556;10.956;2024-03-23T14:44:25;5.13;;;2.15;;
20154;SDS011;10238;49.556;10.956;2024-03-23T14:47:13;2.72;;;2.15;;
20154;SDS011;10238;49.556;10.956;2024-03-23T14:50:00;2.42;;;1.88;;
20154;SDS011;10238;49.556;10.956;2024-03-23T14:52:45;2.72;;;2.25;;
20154;SDS011;10238;49.556;10.956;2024-03-23T14:55:35;6.38;;;2.50;;
20154;SDS011;10238;49.556;10.956;2024-03-23T14:58:21;6.68;;;2.92;;
20154;SDS011;10238;49.556;10.956;2024-03-23T15:01:09;4.47;;;2.10;;
20154;SDS011;10238;49.556;10.956;2024-03-23T15:03:54;3.35;;;1.90;;
20154;SDS011;10238;49.556;10.956;2024-03-23T15:06:41;3.13;;;2.40;;
20154;SDS011;10238;49.556;10.956;2024-03-23T15:09:27;7.22;;;2.30;;
20154;SDS011;10238;49.556;10.956;2024-03-23T15:12:14;5.00;;;2.05;;
20154;SDS011;10238;49.556;10.956;2024-03-23T15:15:01;6.35;;;2.08;;
20154;SDS011;10238;49.556;10.956;2024-03-23T15:17:47;5.05;;;2.58;;
20154;SDS011;10238;49.556;10.956;2024-03-23T15:20:35;5.95;;;2.47;;
20154;SDS011;10238;49.556;10.956;2024-03-23T15:23:21;6.13;;;2.30;;
20154;SDS011;10238;49.556;10.956;2024-03-23T15:26:08;4.60;;;2.35;;
20154;SDS011;10238;49.556;10.956;2024-03-23T15:28:54;4.18;;;2.13;;
20154;SDS011;10238;49.556;10.956;2024-03-23T15:31:56;4.13;;;2.05;;
20154;SDS011;10238;49.556;10.956;2024-03-23T15:34:42;5.03;;;2.17;;
20154;SDS011;10238;49.556;10.956;2024-03-23T15:37:28;3.08;;;1.92;;
20154;SDS011;10238;49.556;10.956;2024-03-23T15:40:17;3.70;;;2.10;;
20154;SDS011;10238;49.556;10.956;2024-03-23T15:43:04;4.53;;;1.85;;
20154;SDS011;10238;49.556;10.956;2024-03-23T15:45:57;3.80;;;1.83;;
20154;SDS011;10238;49.556;10.956;2024-03-23T15:48:46;2.65;;;1.60;;
20154;SDS011;10238;49.556;10.956;2024-03-23T15:51:33;2.35;;;1.45;;
20154;SDS011;10238;49.556;10.956;2024-03-23T15:54:21;4.88;;;2.03;;
20154;SDS011;10238;49.556;10.956;2024-03-23T15:57:07;4.80;;;1.77;;
20154;SDS011;10238;49.556;10.956;2024-03-23T15:59:53;2.60;;;1.77;;
20154;SDS011;10238;49.556;10.956;2024-03-23T16:02:41;3.55;;;1.88;;
20154;SDS011;10238;49.556;10.956;2024-03-23T16:05:28;3.08;;;1.85;;
20154;SDS011;10238;49.556;10.956;2024-03-23T16:08:13;4.57;;;1.60;;
20154;SDS011;10238;49.556;10.956;2024-03-23T16:11:00;3.78;;;1.48;;
20154;SDS011;10238;49.556;10.956;2024-03-23T16:13:49;3.97;;;1.70;;
20154;SDS011;10238;49.556;10.956;2024-03-23T16:16:35;4.40;;;2.40;;
20154;SDS011;10238;49.556;10.956;2024-03-23T16:19:23;4.90;;;1.58;;
20154;SDS011;10238;49.556;10.956;2024-03-23T16:22:08;6.32;;;1.80;;
20154;SDS011;10238;49.556;10.956;2024-03-23T16:24:55;2.72;;;1.50;;
20154;SDS011;10238;49.556;10.956;2024-03-23T16:27:41;4.72;;;2.20;;
20154;SDS011;10238;49.556;10.956;2024-03-23T16:30:27;4.05;;;2.08;;
20154;SDS011;10238;49.556;10.956;2024-03-23T16:33:13;2.95;;;1.40;;
20154;SDS011;10238;49.556;10.956;2024-03-23T16:36:01;2.17;;;1.55;;
20154;SDS011;10238;49.556;10.956;2024-03-23T16:38:49;6.07;;;1.75;;
20154;SDS011;10238;49.556;10.956;2024-03-23T16:41:36;1.58;;;1.40;;
20154;SDS011;10238;49.556;10.956;2024-03-23T16:44:23;3.78;;;1.60;;
20154;SDS011;10238;49.556;10.956;2024-03-23T16:47:09;2.03;;;1.20;;
20154;SDS011;10238;49.556;10.956;2024-03-23T16:49:55;1.20;;;1.10;;
20154;SDS011;10238;49.556;10.956;2024-03-23T16:52:42;1.27;;;1.17;;
20154;SDS011;10238;49.556;10.956;2024-03-23T16:55:29;1.40;;;1.30;;
20154;SDS011;10238;49.556;10.956;2024-03-23T16:58:15;3.00;;;1.52;;
20154;SDS011;10238;49.556;10.956;2024-03-23T17:01:03;1.02;;;1.00;;
20154;SDS011;10238;49.556;10.956;2024-03-23T17:03:52;2.58;;;1.40;;
20154;SDS011;10238;49.556;10.956;2024-03-23T17:06:38;2.40;;;1.55;;
20154;SDS011;10238;49.556;10.956;2024-03-23T17:09:26;2.03;;;1.52;;
20154;SDS011;10238;49.556;10.956;2024-03-23T17:12:12;2.13;;;1.58;;
20154;SDS011;10238;49.556;10.956;2024-03-23T17:14:59;1.83;;;1.33;;
20154;SDS011;10238;49.556;10.956;2024-03-23T17:17:50;2.33;;;1.20;;
20154;SDS011;10238;49.556;10.956;2024-03-23T17:20:38;1.40;;;1.13;;